sensor_id;sensor_type;location;lat;lon;timestamp;P1;durP1;ratioP1;P2;durP2;ratioP2
64188;SDS011;50493;50.970;10.082;2023-06-05T00:01:53;2.00;;;1.20;;
64188;SDS011;50493;50.970;10.082;2023-06-05T00:04:18;2.47;;;1.60;;
64188;SDS011;50493;50.970;10.082;2023-06-05T00:06:45;2.58;;;1.50;;
64188;SDS011;50493;50.970;10.082;2023-06-05T00:09:10;2.70;;;1.40;;
64188;SDS011;50493;50.970;10.082;2023-06-05T00:11:35;2.85;;;1.48;;
64188;SDS011;50493;50.970;10.082;2023-06-05T00:14:01;2.38;;;1.30;;
64188;SDS011;50493;50.970;10.082;2023-06-05T00:16:26;2.55;;;1.48;;
64188;SDS011;50493;50.970;10.082;2023-06-05T00:18:51;2.63;;;1.38;;
64188;SDS011;50493;50.970;10.082;2023-06-05T00:21:17;1.83;;;1.30;;
64188;SDS011;50493;50.970;10.082;2023-06-05T00:23:43;2.35;;;1.38;;
64188;SDS011;50493;50.970;10.082;2023-06-05T00:26:09;3.00;;;1.40;;
64188;SDS011;50493;50.970;10.082;2023-06-05T00:28:34;3.50;;;1.58;;
64188;SDS011;50493;50.970;10.082;2023-06-05T00:31:00;3.88;;;1.40;;
64188;SDS011;50493;50.970;10.082;2023-06-05T00:33:25;3.67;;;1.67;;
64188;SDS011;50493;50.970;10.082;2023-06-05T00:35:52;2.17;;;1.30;;
64188;SDS011;50493;50.970;10.082;2023-06-05T00:38:18;2.90;;;1.60;;
64188;SDS011;50493;50.970;10.082;2023-06-05T00:40:44;2.10;;;1.38;;
64188;SDS011;50493;50.970;10.082;2023-06-05T00:43:10;2.13;;;1.50;;
64188;SDS011;50493;50.970;10.082;2023-06-05T00:45:35;2.60;;;1.48;;
64188;SDS011;50493;50.970;10.082;2023-06-05T00:48:00;2.22;;;1.40;;
64188;SDS011;50493;50.970;10.082;2023-06-05T00:50:26;3.50;;;1.50;;
64188;SDS011;50493;50.970;10.082;2023-06-05T00:52:52;2.58;;;1.50;;
64188;SDS011;50493;50.970;10.082;2023-06-05T00:55:18;2.85;;;1.50;;
64188;SDS011;50493;50.970;10.082;2023-06-05T00:57:45;2.25;;;1.40;;
64188;SDS011;50493;50.970;10.082;2023-06-05T01:00:11;3.28;;;1.50;;
64188;SDS011;50493;50.970;10.082;2023-06-05T01:02:37;2.17;;;1.58;;
64188;SDS011;50493;50.970;10.082;2023-06-05T01:05:03;2.33;;;1.42;;
64188;SDS011;50493;50.970;10.082;2023-06-05T01:07:28;3.08;;;1.50;;
64188;SDS011;50493;50.970;10.082;2023-06-05T01:09:55;2.38;;;1.48;;
64188;SDS011;50493;50.970;10.082;2023-06-05T01:12:33;2.85;;;1.60;;
64188;SDS011;50493;50.970;10.082;2023-06-05T01:15:05;1.88;;;1.30;;
64188;SDS011;50493;50.970;10.082;2023-06-05T01:19:59;2.45;;;1.60;;
64188;SDS011;50493;50.970;10.082;2023-06-05T01:22:25;3.20;;;1.52;;
64188;SDS011;50493;50.970;10.082;2023-06-05T01:24:52;3.33;;;1.50;;
64188;SDS011;50493;50.970;10.082;2023-06-05T01:27:19;3.30;;;1.50;;
64188;SDS011;50493;50.970;10.082;2023-06-05T01:29:51;2.90;;;1.45;;
64188;SDS011;50493;50.970;10.082;2023-06-05T01:32:23;3.50;;;1.60;;
64188;SDS011;50493;50.970;10.082;2023-06-05T01:34:54;3.13;;;1.58;;
64188;SDS011;50493;50.970;10.082;2023-06-05T01:37:21;2.50;;;1.52;;
64188;SDS011;50493;50.970;10.082;2023-06-05T01:39:50;2.60;;;1.30;;
64188;SDS011;50493;50.970;10.082;2023-06-05T01:42:18;2.35;;;1.60;;
64188;SDS011;50493;50.970;10.082;2023-06-05T01:44:44;2.63;;;1.60;;
64188;SDS011;50493;50.970;10.082;2023-06-05T01:47:10;2.90;;;1.50;;
64188;SDS011;50493;50.970;10.082;2023-06-05T01:49:35;2.78;;;1.40;;
64188;SDS011;50493;50.970;10.082;2023-06-05T01:52:01;2.75;;;1.50;;
64188;SDS011;50493;50.970;10.082;2023-06-05T01:54:26;2.33;;;1.50;;
64188;SDS011;50493;50.970;10.082;2023-06-05T01:56:54;2.88;;;1.50;;
64188;SDS011;50493;50.970;10.082;2023-06-05T01:59:20;3.47;;;1.50;;
64188;SDS011;50493;50.970;10.082;2023-06-05T02:01:46;3.03;;;1.45;;
64188;SDS011;50493;50.970;10.082;2023-06-05T02:04:12;2.75;;;1.40;;
64188;SDS011;50493;50.970;10.082;2023-06-05T02:06:41;2.03;;;1.30;;
64188;SDS011;50493;50.970;10.082;2023-06-05T02:09:08;2.80;;;1.50;;
64188;SDS011;50493;50.970;10.082;2023-06-05T02:11:35;2.15;;;1.52;;
64188;SDS011;50493;50.970;10.082;2023-06-05T02:14:03;2.47;;;1.40;;
64188;SDS011;50493;50.970;10.082;2023-06-05T02:16:31;2.15;;;1.50;;
64188;SDS011;50493;50.970;10.082;2023-06-05T02:18:57;3.55;;;1.70;;
64188;SDS011;50493;50.970;10.082;2023-06-05T02:21:25;2.83;;;1.50;;
64188;SDS011;50493;50.970;10.082;2023-06-05T02:23:51;2.15;;;1.40;;
64188;SDS011;50493;50.970;10.082;2023-06-05T02:26:16;2.30;;;1.50;;
64188;SDS011;50493;50.970;10.082;2023-06-05T02:28:43;2.22;;;1.50;;
64188;SDS011;50493;50.970;10.082;2023-06-05T02:31:09;2.50;;;1.52;;
64188;SDS011;50493;50.970;10.082;2023-06-05T02:33:41;2.33;;;1.40;;
64188;SDS011;50493;50.970;10.082;2023-06-05T02:36:06;2.00;;;1.40;;
64188;SDS011;50493;50.970;10.082;2023-06-05T02:38:32;3.67;;;1.60;;
64188;SDS011;50493;50.970;10.082;2023-06-05T02:40:57;3.33;;;1.80;;
64188;SDS011;50493;50.970;10.082;2023-06-05T02:43:22;3.10;;;1.40;;
64188;SDS011;50493;50.970;10.082;2023-06-05T02:45:48;2.40;;;1.50;;
64188;SDS011;50493;50.970;10.082;2023-06-05T02:48:15;3.50;;;1.50;;
64188;SDS011;50493;50.970;10.082;2023-06-05T02:50:40;2.38;;;1.40;;
64188;SDS011;50493;50.970;10.082;2023-06-05T02:53:06;2.45;;;1.45;;
64188;SDS011;50493;50.970;10.082;2023-06-05T02:55:31;2.92;;;1.60;;
64188;SDS011;50493;50.970;10.082;2023-06-05T02:57:57;2.00;;;1.40;;
64188;SDS011;50493;50.970;10.082;2023-06-05T03:00:23;3.20;;;1.50;;
64188;SDS011;50493;50.970;10.082;2023-06-05T03:02:50;2.30;;;1.40;;
64188;SDS011;50493;50.970;10.082;2023-06-05T03:05:17;2.70;;;1.67;;
64188;SDS011;50493;50.970;10.082;2023-06-05T03:07:53;2.53;;;1.70;;
64188;SDS011;50493;50.970;10.082;2023-06-05T03:10:18;2.30;;;1.50;;
64188;SDS011;50493;50.970;10.082;2023-06-05T03:12:44;2.28;;;1.50;;
64188;SDS011;50493;50.970;10.082;2023-06-05T03:15:09;2.20;;;1.52;;
64188;SDS011;50493;50.970;10.082;2023-06-05T03:17:36;3.00;;;1.63;;
64188;SDS011;50493;50.970;10.082;2023-06-05T03:20:02;2.65;;;1.65;;
64188;SDS011;50493;50.970;10.082;2023-06-05T03:22:29;3.28;;;1.67;;
64188;SDS011;50493;50.970;10.082;2023-06-05T03:24:55;4.00;;;1.60;;
64188;SDS011;50493;50.970;10.082;2023-06-05T03:27:20;3.47;;;1.85;;
64188;SDS011;50493;50.970;10.082;2023-06-05T03:29:46;2.40;;;1.60;;
64188;SDS011;50493;50.970;10.082;2023-06-05T03:32:11;2.92;;;1.58;;
64188;SDS011;50493;50.970;10.082;2023-06-05T03:34:36;3.05;;;1.58;;
64188;SDS011;50493;50.970;10.082;2023-06-05T03:37:02;3.72;;;1.60;;
64188;SDS011;50493;50.970;10.082;2023-06-05T03:39:29;4.00;;;1.60;;
64188;SDS011;50493;50.970;10.082;2023-06-05T03:41:54;2.78;;;1.48;;
64188;SDS011;50493;50.970;10.082;2023-06-05T03:44:20;3.63;;;1.70;;
64188;SDS011;50493;50.970;10.082;2023-06-05T03:46:45;3.28;;;1.70;;
64188;SDS011;50493;50.970;10.082;2023-06-05T03:49:11;2.50;;;1.58;;
64188;SDS011;50493;50.970;10.082;2023-06-05T03:51:37;4.15;;;1.60;;
64188;SDS011;50493;50.970;10.082;2023-06-05T03:54:04;2.00;;;1.40;;
64188;SDS011;50493;50.970;10.082;2023-06-05T03:56:32;2.22;;;1.30;;
64188;SDS011;50493;50.970;10.082;2023-06-05T03:59:03;2.47;;;1.55;;
64188;SDS011;50493;50.970;10.082;2023-06-05T04:01:43;3.05;;;1.58;;
64188;SDS011;50493;50.970;10.082;2023-06-05T04:04:08;2.88;;;1.50;;
64188;SDS011;50493;50.970;10.082;2023-06-05T04:06:34;2.67;;;1.73;;
64188;SDS011;50493;50.970;10.082;2023-06-05T04:09:01;3.10;;;1.48;;
64188;SDS011;50493;50.970;10.082;2023-06-05T04:11:27;2.97;;;1.52;;
64188;SDS011;50493;50.970;10.082;2023-06-05T04:13:54;4.35;;;1.58;;
64188;SDS011;50493;50.970;10.082;2023-06-05T04:16:19;3.78;;;1.63;;
64188;SDS011;50493;50.970;10.082;2023-06-05T04:18:45;2.10;;;1.50;;
64188;SDS011;50493;50.970;10.082;2023-06-05T04:21:11;2.20;;;1.20;;
64188;SDS011;50493;50.970;10.082;2023-06-05T04:23:36;2.55;;;1.48;;
64188;SDS011;50493;50.970;10.082;2023-06-05T04:26:01;3.00;;;1.67;;
64188;SDS011;50493;50.970;10.082;2023-06-05T04:28:28;2.75;;;1.60;;
64188;SDS011;50493;50.970;10.082;2023-06-05T04:30:54;3.38;;;1.70;;
64188;SDS011;50493;50.970;10.082;2023-06-05T04:33:20;2.28;;;1.48;;
64188;SDS011;50493;50.970;10.082;2023-06-05T04:35:46;3.45;;;1.50;;
64188;SDS011;50493;50.970;10.082;2023-06-05T04:38:11;3.13;;;1.58;;
64188;SDS011;50493;50.970;10.082;2023-06-05T04:40:37;2.60;;;1.52;;
64188;SDS011;50493;50.970;10.082;2023-06-05T04:43:02;3.00;;;1.70;;
64188;SDS011;50493;50.970;10.082;2023-06-05T04:45:28;4.47;;;1.67;;
64188;SDS011;50493;50.970;10.082;2023-06-05T04:47:55;2.22;;;1.48;;
64188;SDS011;50493;50.970;10.082;2023-06-05T04:50:23;2.42;;;1.50;;
64188;SDS011;50493;50.970;10.082;2023-06-05T04:52:50;2.30;;;1.60;;
64188;SDS011;50493;50.970;10.082;2023-06-05T04:55:16;2.65;;;1.70;;
64188;SDS011;50493;50.970;10.082;2023-06-05T04:57:41;3.90;;;1.85;;
64188;SDS011;50493;50.970;10.082;2023-06-05T05:00:07;2.55;;;1.70;;
64188;SDS011;50493;50.970;10.082;2023-06-05T05:02:35;2.75;;;1.50;;
64188;SDS011;50493;50.970;10.082;2023-06-05T05:05:02;3.47;;;1.65;;
64188;SDS011;50493;50.970;10.082;2023-06-05T05:07:29;3.58;;;1.67;;
64188;SDS011;50493;50.970;10.082;2023-06-05T05:09:54;2.58;;;1.67;;
64188;SDS011;50493;50.970;10.082;2023-06-05T05:12:20;4.05;;;1.80;;
64188;SDS011;50493;50.970;10.082;2023-06-05T05:14:45;3.15;;;1.67;;
64188;SDS011;50493;50.970;10.082;2023-06-05T05:17:11;5.28;;;2.50;;
64188;SDS011;50493;50.970;10.082;2023-06-05T05:19:36;8.57;;;2.22;;
64188;SDS011;50493;50.970;10.082;2023-06-05T05:22:07;3.40;;;2.15;;
64188;SDS011;50493;50.970;10.082;2023-06-05T05:24:32;5.57;;;2.33;;
64188;SDS011;50493;50.970;10.082;2023-06-05T05:26:57;5.43;;;3.35;;
64188;SDS011;50493;50.970;10.082;2023-06-05T05:29:23;9.32;;;2.45;;
64188;SDS011;50493;50.970;10.082;2023-06-05T05:31:48;9.00;;;2.60;;
64188;SDS011;50493;50.970;10.082;2023-06-05T05:34:13;6.18;;;2.38;;
64188;SDS011;50493;50.970;10.082;2023-06-05T05:36:39;8.00;;;2.50;;
64188;SDS011;50493;50.970;10.082;2023-06-05T05:39:05;5.63;;;2.17;;
64188;SDS011;50493;50.970;10.082;2023-06-05T05:41:32;5.85;;;2.35;;
64188;SDS011;50493;50.970;10.082;2023-06-05T05:43:58;4.85;;;2.40;;
64188;SDS011;50493;50.970;10.082;2023-06-05T05:46:23;5.38;;;2.10;;
64188;SDS011;50493;50.970;10.082;2023-06-05T05:48:48;3.85;;;2.00;;
64188;SDS011;50493;50.970;10.082;2023-06-05T05:51:13;8.20;;;2.20;;
64188;SDS011;50493;50.970;10.082;2023-06-05T05:53:39;4.70;;;2.10;;
64188;SDS011;50493;50.970;10.082;2023-06-05T05:56:06;6.25;;;2.58;;
64188;SDS011;50493;50.970;10.082;2023-06-05T05:58:31;3.83;;;2.33;;
64188;SDS011;50493;50.970;10.082;2023-06-05T06:00:57;5.00;;;1.90;;
64188;SDS011;50493;50.970;10.082;2023-06-05T06:03:24;4.38;;;2.10;;
64188;SDS011;50493;50.970;10.082;2023-06-05T06:05:49;5.03;;;2.10;;
64188;SDS011;50493;50.970;10.082;2023-06-05T06:08:15;5.30;;;2.05;;
64188;SDS011;50493;50.970;10.082;2023-06-05T06:10:41;5.32;;;2.42;;
64188;SDS011;50493;50.970;10.082;2023-06-05T06:13:08;4.10;;;1.90;;
64188;SDS011;50493;50.970;10.082;2023-06-05T06:15:33;5.53;;;2.30;;
64188;SDS011;50493;50.970;10.082;2023-06-05T06:17:59;6.32;;;2.40;;
64188;SDS011;50493;50.970;10.082;2023-06-05T06:20:27;3.80;;;2.40;;
64188;SDS011;50493;50.970;10.082;2023-06-05T06:22:53;4.82;;;2.50;;
64188;SDS011;50493;50.970;10.082;2023-06-05T06:25:19;4.53;;;2.03;;
64188;SDS011;50493;50.970;10.082;2023-06-05T06:27:46;3.88;;;2.17;;
64188;SDS011;50493;50.970;10.082;2023-06-05T06:30:14;3.75;;;1.90;;
64188;SDS011;50493;50.970;10.082;2023-06-05T06:32:40;5.28;;;2.30;;
64188;SDS011;50493;50.970;10.082;2023-06-05T06:35:06;3.75;;;2.38;;
64188;SDS011;50493;50.970;10.082;2023-06-05T06:37:32;4.47;;;1.63;;
64188;SDS011;50493;50.970;10.082;2023-06-05T06:39:57;4.47;;;2.00;;
64188;SDS011;50493;50.970;10.082;2023-06-05T06:42:23;3.08;;;1.77;;
64188;SDS011;50493;50.970;10.082;2023-06-05T06:44:48;3.88;;;2.15;;
64188;SDS011;50493;50.970;10.082;2023-06-05T06:47:21;5.20;;;2.10;;
64188;SDS011;50493;50.970;10.082;2023-06-05T06:49:47;4.13;;;1.77;;
64188;SDS011;50493;50.970;10.082;2023-06-05T06:52:12;3.45;;;1.88;;
64188;SDS011;50493;50.970;10.082;2023-06-05T06:54:37;3.80;;;2.00;;
64188;SDS011;50493;50.970;10.082;2023-06-05T06:57:03;3.33;;;1.70;;
64188;SDS011;50493;50.970;10.082;2023-06-05T06:59:30;4.32;;;1.95;;
64188;SDS011;50493;50.970;10.082;2023-06-05T07:02:07;3.15;;;1.80;;
64188;SDS011;50493;50.970;10.082;2023-06-05T07:04:36;5.95;;;2.33;;
64188;SDS011;50493;50.970;10.082;2023-06-05T07:07:02;2.55;;;1.77;;
64188;SDS011;50493;50.970;10.082;2023-06-05T07:09:27;4.20;;;1.90;;
64188;SDS011;50493;50.970;10.082;2023-06-05T07:11:53;5.30;;;2.33;;
64188;SDS011;50493;50.970;10.082;2023-06-05T07:14:19;5.10;;;2.38;;
64188;SDS011;50493;50.970;10.082;2023-06-05T07:16:44;3.45;;;2.17;;
64188;SDS011;50493;50.970;10.082;2023-06-05T07:19:09;3.67;;;2.20;;
64188;SDS011;50493;50.970;10.082;2023-06-05T07:21:36;3.80;;;1.80;;
64188;SDS011;50493;50.970;10.082;2023-06-05T07:24:03;3.33;;;2.05;;
64188;SDS011;50493;50.970;10.082;2023-06-05T07:26:28;4.28;;;1.98;;
64188;SDS011;50493;50.970;10.082;2023-06-05T07:28:54;3.60;;;2.20;;
64188;SDS011;50493;50.970;10.082;2023-06-05T07:31:19;2.90;;;1.92;;
64188;SDS011;50493;50.970;10.082;2023-06-05T07:33:46;5.07;;;2.28;;
64188;SDS011;50493;50.970;10.082;2023-06-05T07:36:11;3.47;;;2.20;;
64188;SDS011;50493;50.970;10.082;2023-06-05T07:38:39;3.13;;;2.20;;
64188;SDS011;50493;50.970;10.082;2023-06-05T07:41:05;5.00;;;2.45;;
64188;SDS011;50493;50.970;10.082;2023-06-05T07:43:31;4.50;;;2.40;;
64188;SDS011;50493;50.970;10.082;2023-06-05T07:45:56;4.72;;;2.20;;
64188;SDS011;50493;50.970;10.082;2023-06-05T07:48:22;4.13;;;2.10;;
64188;SDS011;50493;50.970;10.082;2023-06-05T07:50:47;3.67;;;2.30;;
64188;SDS011;50493;50.970;10.082;2023-06-05T07:53:13;4.68;;;2.40;;
64188;SDS011;50493;50.970;10.082;2023-06-05T07:55:39;3.92;;;2.15;;
64188;SDS011;50493;50.970;10.082;2023-06-05T07:58:04;3.22;;;1.98;;
64188;SDS011;50493;50.970;10.082;2023-06-05T08:00:30;5.70;;;2.30;;
64188;SDS011;50493;50.970;10.082;2023-06-05T08:02:56;5.55;;;2.28;;
64188;SDS011;50493;50.970;10.082;2023-06-05T08:05:23;4.50;;;2.65;;
64188;SDS011;50493;50.970;10.082;2023-06-05T08:07:48;4.15;;;2.28;;
64188;SDS011;50493;50.970;10.082;2023-06-05T08:10:13;3.90;;;2.20;;
64188;SDS011;50493;50.970;10.082;2023-06-05T08:12:40;3.65;;;2.22;;
64188;SDS011;50493;50.970;10.082;2023-06-05T08:15:06;4.68;;;2.35;;
64188;SDS011;50493;50.970;10.082;2023-06-05T08:17:32;3.40;;;1.80;;
64188;SDS011;50493;50.970;10.082;2023-06-05T08:19:57;3.05;;;1.85;;
64188;SDS011;50493;50.970;10.082;2023-06-05T08:22:23;3.60;;;2.10;;
64188;SDS011;50493;50.970;10.082;2023-06-05T08:24:48;4.75;;;2.38;;
64188;SDS011;50493;50.970;10.082;2023-06-05T08:27:15;5.88;;;2.20;;
64188;SDS011;50493;50.970;10.082;2023-06-05T08:29:42;4.25;;;2.10;;
64188;SDS011;50493;50.970;10.082;2023-06-05T08:32:07;5.15;;;2.17;;
64188;SDS011;50493;50.970;10.082;2023-06-05T08:34:32;5.15;;;2.20;;
64188;SDS011;50493;50.970;10.082;2023-06-05T08:37:00;4.13;;;2.20;;
64188;SDS011;50493;50.970;10.082;2023-06-05T08:39:25;3.45;;;2.25;;
64188;SDS011;50493;50.970;10.082;2023-06-05T08:41:54;2.42;;;1.85;;
64188;SDS011;50493;50.970;10.082;2023-06-05T08:44:25;3.35;;;1.88;;
64188;SDS011;50493;50.970;10.082;2023-06-05T08:46:51;2.95;;;1.98;;
64188;SDS011;50493;50.970;10.082;2023-06-05T08:49:20;4.47;;;2.10;;
64188;SDS011;50493;50.970;10.082;2023-06-05T08:51:49;6.13;;;2.17;;
64188;SDS011;50493;50.970;10.082;2023-06-05T08:54:17;3.63;;;2.08;;
64188;SDS011;50493;50.970;10.082;2023-06-05T08:56:44;3.65;;;2.00;;
64188;SDS011;50493;50.970;10.082;2023-06-05T08:59:11;3.00;;;2.20;;
64188;SDS011;50493;50.970;10.082;2023-06-05T09:01:39;4.38;;;2.20;;
64188;SDS011;50493;50.970;10.082;2023-06-05T09:04:06;3.85;;;2.20;;
64188;SDS011;50493;50.970;10.082;2023-06-05T09:06:32;3.42;;;2.15;;
64188;SDS011;50493;50.970;10.082;2023-06-05T09:09:01;4.60;;;2.38;;
64188;SDS011;50493;50.970;10.082;2023-06-05T09:11:27;3.67;;;2.10;;
64188;SDS011;50493;50.970;10.082;2023-06-05T09:13:55;3.95;;;2.22;;
64188;SDS011;50493;50.970;10.082;2023-06-05T09:16:21;5.00;;;2.55;;
64188;SDS011;50493;50.970;10.082;2023-06-05T09:18:56;7.00;;;2.30;;
64188;SDS011;50493;50.970;10.082;2023-06-05T09:21:24;3.85;;;2.00;;
64188;SDS011;50493;50.970;10.082;2023-06-05T09:24:16;6.32;;;2.17;;
64188;SDS011;50493;50.970;10.082;2023-06-05T09:26:46;2.80;;;1.90;;
64188;SDS011;50493;50.970;10.082;2023-06-05T09:29:13;3.67;;;1.80;;
64188;SDS011;50493;50.970;10.082;2023-06-05T09:31:44;3.95;;;2.20;;
64188;SDS011;50493;50.970;10.082;2023-06-05T09:34:09;5.20;;;2.20;;
64188;SDS011;50493;50.970;10.082;2023-06-05T09:36:36;4.32;;;2.20;;
64188;SDS011;50493;50.970;10.082;2023-06-05T09:39:13;5.03;;;2.10;;
64188;SDS011;50493;50.970;10.082;2023-06-05T09:41:41;3.75;;;1.77;;
64188;SDS011;50493;50.970;10.082;2023-06-05T09:44:07;4.07;;;1.90;;
64188;SDS011;50493;50.970;10.082;2023-06-05T09:46:32;3.53;;;1.80;;
64188;SDS011;50493;50.970;10.082;2023-06-05T09:48:58;4.95;;;1.85;;
64188;SDS011;50493;50.970;10.082;2023-06-05T09:51:26;9.93;;;1.95;;
64188;SDS011;50493;50.970;10.082;2023-06-05T09:53:52;4.25;;;1.90;;
64188;SDS011;50493;50.970;10.082;2023-06-05T09:56:19;3.38;;;1.83;;
64188;SDS011;50493;50.970;10.082;2023-06-05T09:58:46;3.72;;;1.77;;
64188;SDS011;50493;50.970;10.082;2023-06-05T10:01:13;3.97;;;2.00;;
64188;SDS011;50493;50.970;10.082;2023-06-05T10:03:42;4.05;;;1.88;;
64188;SDS011;50493;50.970;10.082;2023-06-05T10:06:12;4.50;;;2.20;;
64188;SDS011;50493;50.970;10.082;2023-06-05T10:08:39;3.00;;;1.90;;
64188;SDS011;50493;50.970;10.082;2023-06-05T10:11:05;3.72;;;1.80;;
64188;SDS011;50493;50.970;10.082;2023-06-05T10:13:32;5.20;;;2.22;;
64188;SDS011;50493;50.970;10.082;2023-06-05T10:15:58;5.10;;;1.90;;
64188;SDS011;50493;50.970;10.082;2023-06-05T10:18:24;5.05;;;2.13;;
64188;SDS011;50493;50.970;10.082;2023-06-05T10:20:50;3.05;;;2.00;;
64188;SDS011;50493;50.970;10.082;2023-06-05T10:23:15;3.72;;;1.77;;
64188;SDS011;50493;50.970;10.082;2023-06-05T10:25:43;3.38;;;1.80;;
64188;SDS011;50493;50.970;10.082;2023-06-05T10:28:17;2.30;;;1.95;;
64188;SDS011;50493;50.970;10.082;2023-06-05T10:30:59;6.63;;;2.35;;
64188;SDS011;50493;50.970;10.082;2023-06-05T10:36:39;3.10;;;1.83;;
64188;SDS011;50493;50.970;10.082;2023-06-05T10:39:25;6.10;;;1.88;;
64188;SDS011;50493;50.970;10.082;2023-06-05T10:41:54;4.45;;;1.90;;
64188;SDS011;50493;50.970;10.082;2023-06-05T10:44:24;3.72;;;2.03;;
64188;SDS011;50493;50.970;10.082;2023-06-05T10:47:05;4.85;;;2.10;;
64188;SDS011;50493;50.970;10.082;2023-06-05T10:50:20;3.08;;;2.03;;
64188;SDS011;50493;50.970;10.082;2023-06-05T10:52:51;4.25;;;2.05;;
64188;SDS011;50493;50.970;10.082;2023-06-05T10:55:18;3.30;;;1.88;;
64188;SDS011;50493;50.970;10.082;2023-06-05T11:00:33;3.97;;;1.90;;
64188;SDS011;50493;50.970;10.082;2023-06-05T11:02:59;3.70;;;1.90;;
64188;SDS011;50493;50.970;10.082;2023-06-05T11:05:26;3.13;;;2.20;;
64188;SDS011;50493;50.970;10.082;2023-06-05T11:10:41;5.15;;;2.15;;
64188;SDS011;50493;50.970;10.082;2023-06-05T11:13:37;3.08;;;1.90;;
64188;SDS011;50493;50.970;10.082;2023-06-05T11:16:25;2.85;;;1.83;;
64188;SDS011;50493;50.970;10.082;2023-06-05T11:18:51;4.53;;;2.00;;
64188;SDS011;50493;50.970;10.082;2023-06-05T11:21:17;2.90;;;2.00;;
64188;SDS011;50493;50.970;10.082;2023-06-05T11:23:57;3.38;;;1.92;;
64188;SDS011;50493;50.970;10.082;2023-06-05T11:29:09;3.63;;;1.90;;
64188;SDS011;50493;50.970;10.082;2023-06-05T11:31:37;4.05;;;1.80;;
64188;SDS011;50493;50.970;10.082;2023-06-05T11:34:03;7.70;;;2.38;;
64188;SDS011;50493;50.970;10.082;2023-06-05T11:36:37;3.38;;;2.00;;
64188;SDS011;50493;50.970;10.082;2023-06-05T11:39:03;4.45;;;2.10;;
64188;SDS011;50493;50.970;10.082;2023-06-05T11:41:28;4.53;;;2.10;;
64188;SDS011;50493;50.970;10.082;2023-06-05T11:43:54;6.22;;;2.25;;
64188;SDS011;50493;50.970;10.082;2023-06-05T11:46:34;4.18;;;2.10;;
64188;SDS011;50493;50.970;10.082;2023-06-05T11:49:01;3.53;;;2.20;;
64188;SDS011;50493;50.970;10.082;2023-06-05T11:51:27;3.58;;;2.15;;
64188;SDS011;50493;50.970;10.082;2023-06-05T11:53:59;3.33;;;2.10;;
64188;SDS011;50493;50.970;10.082;2023-06-05T11:56:26;3.97;;;2.00;;
64188;SDS011;50493;50.970;10.082;2023-06-05T11:58:52;3.78;;;2.00;;
64188;SDS011;50493;50.970;10.082;2023-06-05T12:01:18;5.72;;;2.20;;
64188;SDS011;50493;50.970;10.082;2023-06-05T12:06:14;6.60;;;2.40;;
64188;SDS011;50493;50.970;10.082;2023-06-05T12:08:41;3.63;;;2.30;;
64188;SDS011;50493;50.970;10.082;2023-06-05T12:11:22;3.85;;;2.25;;
64188;SDS011;50493;50.970;10.082;2023-06-05T12:13:49;6.45;;;2.30;;
64188;SDS011;50493;50.970;10.082;2023-06-05T12:16:15;3.40;;;2.22;;
64188;SDS011;50493;50.970;10.082;2023-06-05T12:18:41;3.50;;;2.20;;
64188;SDS011;50493;50.970;10.082;2023-06-05T12:21:07;2.78;;;2.00;;
64188;SDS011;50493;50.970;10.082;2023-06-05T12:23:44;11.50;;;2.35;;
64188;SDS011;50493;50.970;10.082;2023-06-05T12:26:09;3.88;;;1.90;;
64188;SDS011;50493;50.970;10.082;2023-06-05T12:28:36;4.60;;;2.25;;
64188;SDS011;50493;50.970;10.082;2023-06-05T12:31:01;3.70;;;1.98;;
64188;SDS011;50493;50.970;10.082;2023-06-05T12:33:27;4.95;;;2.15;;
64188;SDS011;50493;50.970;10.082;2023-06-05T12:36:02;4.00;;;1.80;;
64188;SDS011;50493;50.970;10.082;2023-06-05T12:38:28;5.43;;;2.22;;
64188;SDS011;50493;50.970;10.082;2023-06-05T12:40:53;4.45;;;2.10;;
64188;SDS011;50493;50.970;10.082;2023-06-05T12:43:19;2.85;;;2.08;;
64188;SDS011;50493;50.970;10.082;2023-06-05T12:45:46;5.05;;;2.35;;
64188;SDS011;50493;50.970;10.082;2023-06-05T12:48:12;3.22;;;2.35;;
64188;SDS011;50493;50.970;10.082;2023-06-05T12:50:37;4.15;;;2.22;;
64188;SDS011;50493;50.970;10.082;2023-06-05T12:53:03;6.75;;;2.10;;
64188;SDS011;50493;50.970;10.082;2023-06-05T12:55:28;3.90;;;1.80;;
64188;SDS011;50493;50.970;10.082;2023-06-05T12:57:53;3.88;;;2.10;;
64188;SDS011;50493;50.970;10.082;2023-06-05T13:00:19;4.07;;;2.05;;
64188;SDS011;50493;50.970;10.082;2023-06-05T13:02:46;4.60;;;1.95;;
64188;SDS011;50493;50.970;10.082;2023-06-05T13:05:13;5.57;;;2.00;;
64188;SDS011;50493;50.970;10.082;2023-06-05T13:07:38;4.32;;;2.10;;
64188;SDS011;50493;50.970;10.082;2023-06-05T13:10:04;3.60;;;1.95;;
64188;SDS011;50493;50.970;10.082;2023-06-05T13:12:30;4.93;;;2.08;;
64188;SDS011;50493;50.970;10.082;2023-06-05T13:14:56;3.67;;;2.03;;
64188;SDS011;50493;50.970;10.082;2023-06-05T13:17:21;7.60;;;2.10;;
64188;SDS011;50493;50.970;10.082;2023-06-05T13:19:49;5.43;;;2.15;;
64188;SDS011;50493;50.970;10.082;2023-06-05T13:22:14;3.55;;;2.35;;
64188;SDS011;50493;50.970;10.082;2023-06-05T13:24:40;5.75;;;2.30;;
64188;SDS011;50493;50.970;10.082;2023-06-05T13:27:05;3.88;;;2.20;;
64188;SDS011;50493;50.970;10.082;2023-06-05T13:29:31;3.72;;;1.90;;
64188;SDS011;50493;50.970;10.082;2023-06-05T13:31:56;3.95;;;2.40;;
64188;SDS011;50493;50.970;10.082;2023-06-05T13:34:21;4.13;;;2.30;;
64188;SDS011;50493;50.970;10.082;2023-06-05T13:36:48;3.20;;;2.20;;
64188;SDS011;50493;50.970;10.082;2023-06-05T13:39:13;4.63;;;2.33;;
64188;SDS011;50493;50.970;10.082;2023-06-05T13:41:39;5.78;;;2.53;;
64188;SDS011;50493;50.970;10.082;2023-06-05T13:44:05;4.22;;;2.30;;
64188;SDS011;50493;50.970;10.082;2023-06-05T13:46:30;5.32;;;2.45;;
64188;SDS011;50493;50.970;10.082;2023-06-05T13:48:55;4.40;;;2.30;;
64188;SDS011;50493;50.970;10.082;2023-06-05T13:51:24;4.47;;;2.55;;
64188;SDS011;50493;50.970;10.082;2023-06-05T13:53:52;4.47;;;2.40;;
64188;SDS011;50493;50.970;10.082;2023-06-05T13:56:18;6.28;;;2.65;;
64188;SDS011;50493;50.970;10.082;2023-06-05T13:58:45;4.30;;;2.40;;
64188;SDS011;50493;50.970;10.082;2023-06-05T14:01:10;4.47;;;2.22;;
64188;SDS011;50493;50.970;10.082;2023-06-05T14:03:35;4.85;;;2.30;;
64188;SDS011;50493;50.970;10.082;2023-06-05T14:06:01;3.50;;;2.45;;
64188;SDS011;50493;50.970;10.082;2023-06-05T14:08:26;4.65;;;2.70;;
64188;SDS011;50493;50.970;10.082;2023-06-05T14:10:53;4.10;;;2.47;;
64188;SDS011;50493;50.970;10.082;2023-06-05T14:13:19;3.95;;;2.58;;
64188;SDS011;50493;50.970;10.082;2023-06-05T14:15:44;4.68;;;2.30;;
64188;SDS011;50493;50.970;10.082;2023-06-05T14:18:10;4.50;;;2.55;;
64188;SDS011;50493;50.970;10.082;2023-06-05T14:20:37;4.78;;;2.50;;
64188;SDS011;50493;50.970;10.082;2023-06-05T14:23:02;3.42;;;2.20;;
64188;SDS011;50493;50.970;10.082;2023-06-05T14:25:28;4.97;;;2.47;;
64188;SDS011;50493;50.970;10.082;2023-06-05T14:27:56;4.78;;;2.50;;
64188;SDS011;50493;50.970;10.082;2023-06-05T14:30:23;3.45;;;2.35;;
64188;SDS011;50493;50.970;10.082;2023-06-05T14:32:48;3.95;;;2.17;;
64188;SDS011;50493;50.970;10.082;2023-06-05T14:35:13;3.78;;;2.13;;
64188;SDS011;50493;50.970;10.082;2023-06-05T14:37:41;4.25;;;2.40;;
64188;SDS011;50493;50.970;10.082;2023-06-05T14:40:07;3.45;;;2.38;;
64188;SDS011;50493;50.970;10.082;2023-06-05T14:42:33;4.18;;;2.63;;
64188;SDS011;50493;50.970;10.082;2023-06-05T14:44:59;5.60;;;2.70;;
64188;SDS011;50493;50.970;10.082;2023-06-05T14:47:25;3.55;;;2.22;;
64188;SDS011;50493;50.970;10.082;2023-06-05T14:49:50;4.82;;;2.38;;